X  Close Metar Aviation Weather Data     ESNL Lycksele
Temperature
-1°C Temperature
-7°C Dewpoint
64% Humidity



Wind
5 M/S
12 MPH
19 KM/H
10 KTS



290°
WNW
Current Conditions

Partly Cloudy Partly Cloudy
Pressure 1014.92 (hPa) - 29.97 (inHg)
Visibility 6.2 (mile) - 10 (km)
Airport
Airport-code ESNL

Location: Lycksele
Distance: 35 (km)

Metar:
ESNL 100620Z AUTO 29010KT 9999 FEW081/// M01/M07 Q1015

Time: 2020-04-10 08:20 CEST